Time;durP1;ratioP1;P1;durP2;ratioP2;P2;SDS_P1;SDS_P2;PMS_P1;PMS_P2;Temp;Humidity;BMP_temperature;BMP_pressure;BME280_temperature;BME280_humidity;BME280_pressure;Samples;Min_cycle;Max_cycle;Signal;HPM_P1;HPM_P2
2021/08/30 00:02:18;;;;;;;18.00;14.98;;;;;;;28.21;57.10;100477.36;1738319;81;21034;-50
2021/08/30 00:04:44;;;;;;;21.52;16.00;;;;;;;28.21;57.21;100474.69;1744907;80;21034;-50
2021/08/30 00:07:11;;;;;;;19.37;16.32;;;;;;;28.18;57.38;100472.30;1763208;80;21038;-50
2021/08/30 00:09:41;;;;;;;17.75;15.65;;;;;;;28.16;57.42;100471.61;1761332;80;21003;-50
2021/08/30 00:12:10;;;;;;;19.75;14.78;;;;;;;28.15;57.33;100477.98;1764851;80;21047;-51
2021/08/30 00:14:38;;;;;;;15.53;13.95;;;;;;;28.13;57.31;100475.95;1741553;81;21501;-49
2021/08/30 00:17:07;;;;;;;15.72;13.88;;;;;;;28.12;57.42;100476.92;1745157;80;21017;-50
2021/08/30 00:19:34;;;;;;;15.50;14.03;;;;;;;28.10;57.31;100485.59;1760623;80;20994;-50
2021/08/30 00:22:04;;;;;;;16.37;13.78;;;;;;;28.08;56.97;100485.77;1727751;80;21036;-50
2021/08/30 00:24:31;;;;;;;16.90;15.08;;;;;;;28.06;57.02;100487.75;1762174;80;21313;-50
2021/08/30 00:26:59;;;;;;;15.50;13.65;;;;;;;28.06;57.13;100494.92;1749510;80;22260;-50
2021/08/30 00:29:26;;;;;;;16.95;13.60;;;;;;;28.04;57.38;100491.56;1763417;80;20971;-51
2021/08/30 00:31:55;;;;;;;17.62;14.38;;;;;;;28.02;57.47;100488.19;1749609;80;20995;-50
2021/08/30 00:34:22;;;;;;;16.17;14.47;;;;;;;28.00;57.43;100494.19;1759606;80;21074;-50
2021/08/30 00:36:51;;;;;;;15.83;14.13;;;;;;;27.99;57.49;100491.16;1765129;80;21018;-50
2021/08/30 00:39:25;;;;;;;19.75;14.38;;;;;;;27.97;57.52;100490.47;1748398;80;20998;-50
2021/08/30 00:41:52;;;;;;;20.40;14.85;;;;;;;27.95;57.29;100493.75;1752413;80;21034;-50
2021/08/30 00:44:21;;;;;;;16.75;14.35;;;;;;;27.94;57.34;100492.09;1740735;80;21070;-50
2021/08/30 00:46:48;;;;;;;18.60;14.65;;;;;;;27.91;57.44;100493.71;1743096;80;21416;-50
2021/08/30 00:49:15;;;;;;;22.93;15.95;;;;;;;27.90;57.52;100497.39;1759054;80;21070;-50
2021/08/30 00:51:42;;;;;;;19.42;14.75;;;;;;;27.87;57.41;100493.66;1778363;80;21077;-50
2021/08/30 00:54:10;;;;;;;16.30;14.50;;;;;;;27.86;57.31;100492.00;1772441;80;21097;-50
2021/08/30 00:56:38;;;;;;;23.42;14.80;;;;;;;27.84;57.39;100502.00;1768442;80;21081;-50
2021/08/30 00:59:06;;;;;;;16.60;14.85;;;;;;;27.82;57.34;100494.63;1732577;81;21042;-50
2021/08/30 01:01:33;;;;;;;21.37;15.10;;;;;;;27.80;57.55;100493.41;1748675;81;21034;-50
2021/08/30 01:04:00;;;;;;;17.73;15.38;;;;;;;27.79;57.69;100493.58;1743156;80;21072;-50
2021/08/30 01:06:58;;;;;;;25.25;16.30;;;;;;;27.77;57.36;100498.23;1742208;81;21030;-50
2021/08/30 01:09:50;;;;;;;16.95;14.25;;;;;;;27.76;57.38;100501.91;1661868;84;21003;-50
2021/08/30 01:12:34;;;;;;;17.00;15.00;;;;;;;27.73;57.76;100501.70;1670933;85;21532;-50
2021/08/30 01:15:27;;;;;;;16.05;14.35;;;;;;;27.71;57.63;100498.34;1667042;84;21044;-50
2021/08/30 01:17:54;;;;;;;16.32;14.47;;;;;;;27.71;57.64;100508.19;1666790;85;21025;-50
2021/08/30 01:21:04;;;;;;;18.85;15.35;;;;;;;27.69;57.61;100502.14;1667321;84;21179;-52
2021/08/30 01:23:30;;;;;;;18.12;15.13;;;;;;;27.67;57.93;100504.97;1670644;84;21092;-50
2021/08/30 01:26:00;;;;;;;16.87;15.18;;;;;;;27.66;58.13;100507.77;1667353;85;21009;-52
2021/08/30 01:28:38;;;;;;;18.20;16.25;;;;;;;27.65;58.09;100502.09;1646213;85;21096;-49
2021/08/30 01:31:13;;;;;;;17.12;15.48;;;;;;;27.65;58.14;100499.42;1617382;87;21077;-50
2021/08/30 01:33:39;;;;;;;20.17;15.38;;;;;;;27.63;58.13;100492.05;1588372;89;21654;-49
2021/08/30 01:36:06;;;;;;;17.52;15.83;;;;;;;27.62;58.13;100495.70;1585473;89;21109;-49
2021/08/30 01:38:32;;;;;;;18.12;15.80;;;;;;;27.60;58.18;100503.02;1590502;89;21602;-49
2021/08/30 01:40:59;;;;;;;16.80;15.00;;;;;;;27.59;58.33;100500.02;1582762;90;21077;-50
2021/08/30 01:43:28;;;;;;;18.20;15.90;;;;;;;27.58;58.36;100503.17;1584585;90;21581;-49
2021/08/30 01:45:54;;;;;;;17.90;15.10;;;;;;;27.56;58.53;100502.48;1583642;89;21084;-49
2021/08/30 01:48:21;;;;;;;19.90;15.23;;;;;;;27.54;58.61;100503.61;1585249;89;21165;-49
2021/08/30 01:50:49;;;;;;;17.57;15.30;;;;;;;27.53;58.56;100505.47;1573584;90;21167;-49
2021/08/30 01:53:15;;;;;;;19.32;15.58;;;;;;;27.52;58.38;100509.60;1577762;89;21137;-49
2021/08/30 01:55:45;;;;;;;16.75;14.98;;;;;;;27.50;58.30;100502.23;1556792;90;21077;-49
2021/08/30 02:00:51;;;;;;;17.57;15.78;;;;;;;27.47;58.51;100497.19;1568840;88;21169;-49
2021/08/30 02:03:26;;;;;;;18.25;15.80;;;;;;;27.46;58.71;100499.50;1626088;87;21081;-49
2021/08/30 02:05:55;;;;;;;20.17;16.42;;;;;;;27.44;58.75;100500.14;1613646;87;21475;-49
2021/08/30 02:08:23;;;;;;;18.27;16.48;;;;;;;27.41;59.06;100497.78;1621953;87;22692;-50
2021/08/30 02:10:53;;;;;;;41.98;18.75;;;;;;;27.41;59.39;100505.80;1623729;88;21161;-50
2021/08/30 02:13:20;;;;;;;21.85;16.50;;;;;;;27.39;59.30;100502.77;1621610;87;21669;-53
2021/08/30 02:15:48;;;;;;;19.23;17.17;;;;;;;27.38;59.32;100495.75;1620580;87;21570;-51
2021/08/30 02:18:39;;;;;;;18.62;15.68;;;;;;;27.37;59.57;100494.05;1621171;87;21025;-51
2021/08/30 02:21:26;;;;;;;20.57;16.50;;;;;;;27.41;59.57;100487.09;1622959;85;21065;-51
2021/08/30 02:24:00;;;;;;;20.40;18.27;;;;;;;27.40;59.65;100491.59;1646683;85;21627;-52
2021/08/30 02:26:43;;;;;;;21.82;17.82;;;;;;;27.40;60.10;100488.92;1667161;85;21097;-51
2021/08/30 02:29:12;;;;;;;22.00;17.27;;;;;;;27.38;60.30;100493.08;1648246;83;21129;-51
2021/08/30 02:31:42;;;;;;;20.50;17.90;;;;;;;27.44;60.13;100492.13;1699361;82;21651;-52
2021/08/30 02:34:08;;;;;;;19.55;17.57;;;;;;;27.41;60.25;100489.77;1699332;82;21053;-51
2021/08/30 02:36:35;;;;;;;21.07;17.87;;;;;;;27.39;60.64;100490.73;1699813;82;21039;-52
2021/08/30 02:39:01;;;;;;;21.57;18.17;;;;;;;27.39;60.71;100485.39;1698681;82;21112;-51
2021/08/30 02:41:28;;;;;;;20.12;18.12;;;;;;;27.39;60.82;100482.72;1728697;82;21095;-52
2021/08/30 02:43:55;;;;;;;20.50;18.37;;;;;;;27.41;60.94;100485.76;1723346;82;21052;-51
2021/08/30 02:46:21;;;;;;;20.43;18.42;;;;;;;27.39;60.97;100485.39;1713330;82;21104;-51
2021/08/30 02:48:49;;;;;;;21.10;18.05;;;;;;;27.41;61.14;100493.77;1720323;82;21034;-51
2021/08/30 02:51:15;;;;;;;20.62;18.62;;;;;;;27.41;61.14;100493.77;1693981;83;21507;-52
2021/08/30 02:53:43;;;;;;;20.40;18.30;;;;;;;27.39;61.25;100490.73;1719205;82;21612;-51
2021/08/30 02:56:10;;;;;;;21.68;19.12;;;;;;;27.41;61.28;100498.59;1693470;82;21121;-51
2021/08/30 02:58:36;;;;;;;27.45;19.45;;;;;;;27.39;61.25;100498.75;1741152;80;21033;-51
2021/08/30 03:01:03;;;;;;;20.60;18.57;;;;;;;27.38;61.29;100498.42;1748913;80;21095;-52
2021/08/30 03:03:30;;;;;;;23.40;20.43;;;;;;;27.39;61.35;100498.75;1773877;80;21086;-52
2021/08/30 03:05:56;;;;;;;20.17;17.95;;;;;;;27.41;61.46;100504.46;1741321;80;20986;-52
2021/08/30 03:08:23;;;;;;;21.30;19.20;;;;;;;27.38;61.40;100497.09;1748347;80;21054;-52
2021/08/30 03:10:50;;;;;;;22.40;18.23;;;;;;;27.42;61.30;100505.64;1755514;80;21134;-52
2021/08/30 03:13:16;;;;;;;20.27;18.17;;;;;;;27.43;61.47;100506.49;1753856;80;20988;-49
2021/08/30 03:15:45;;;;;;;22.40;19.75;;;;;;;27.44;61.51;100506.83;1674211;84;21059;-52
2021/08/30 03:18:12;;;;;;;22.70;20.02;;;;;;;27.42;61.71;100503.45;1700873;83;21035;-52
2021/08/30 03:20:39;;;;;;;23.27;19.75;;;;;;;27.45;61.88;100513.87;1687238;83;21038;-52
2021/08/30 03:23:06;;;;;;;21.23;19.15;;;;;;;27.47;61.99;100519.91;1697477;83;21181;-53
2021/08/30 03:25:34;;;;;;;21.77;19.48;;;;;;;27.47;62.03;100519.39;1706255;84;21537;-52
2021/08/30 03:28:05;;;;;;;22.05;19.62;;;;;;;27.48;62.04;100524.25;1698195;83;21012;-49
2021/08/30 03:30:31;;;;;;;;;;;;;;;27.50;62.05;100520.94;1676737;83;21486;-50
2021/08/30 03:32:58;;;;;;;21.97;19.50;;;;;;;27.51;62.00;100525.30;1668587;84;20086;-52
2021/08/30 03:35:25;;;;;;;21.80;19.62;;;;;;;27.52;61.97;100526.97;1686249;84;21370;-51
2021/08/30 03:37:52;;;;;;;24.52;19.30;;;;;;;27.47;62.11;100529.27;1686413;84;21027;-52
2021/08/30 03:40:18;;;;;;;21.50;19.20;;;;;;;27.44;62.11;100526.87;1676937;83;21496;-50
2021/08/30 03:42:45;;;;;;;22.22;19.90;;;;;;;27.50;62.00;100532.96;1732948;80;21083;-49
2021/08/30 03:45:12;;;;;;;25.68;20.00;;;;;;;27.50;61.89;100535.63;1752943;80;21068;-50
2021/08/30 03:47:39;;;;;;;23.38;18.82;;;;;;;27.50;61.69;100536.97;1752698;80;21078;-50
2021/08/30 03:50:07;;;;;;;22.13;19.77;;;;;;;27.51;61.48;100536.00;1737969;81;21019;-51
2021/08/30 03:52:35;;;;;;;20.88;18.77;;;;;;;27.52;61.36;100544.34;1765272;80;21522;-52
2021/08/30 03:55:02;;;;;;;21.15;18.95;;;;;;;27.53;61.27;100547.38;1749350;80;21101;-49
2021/08/30 03:57:29;;;;;;;21.25;18.40;;;;;;;27.50;61.18;100545.84;1744381;81;20983;-50
2021/08/30 03:59:57;;;;;;;21.30;19.10;;;;;;;27.55;61.04;100546.74;1755973;80;21023;-49
2021/08/30 04:02:25;;;;;;;26.23;18.20;;;;;;;27.55;60.86;100545.41;1752782;81;21046;-50
2021/08/30 04:04:52;;;;;;;45.83;19.20;;;;;;;27.55;60.90;100544.06;1738381;81;21054;-50
2021/08/30 04:07:19;;;;;;;59.53;20.50;;;;;;;27.56;60.85;100543.06;1753612;80;21035;-50
2021/08/30 04:09:49;;;;;;;33.75;20.17;;;;;;;27.55;60.85;100548.08;1751031;80;21140;-50
2021/08/30 04:12:16;;;;;;;21.30;18.20;;;;;;;27.56;60.86;100553.75;1771199;80;21565;-50
2021/08/30 04:14:45;;;;;;;20.70;18.70;;;;;;;27.56;60.76;100550.59;1752206;80;21025;-50
2021/08/30 04:17:13;;;;;;;25.68;19.77;;;;;;;27.59;60.75;100554.81;1758480;80;21031;-52
2021/08/30 04:19:40;;;;;;;24.72;20.17;;;;;;;27.59;60.75;100560.16;1714131;82;21006;-49
2021/08/30 04:22:07;;;;;;;20.12;18.02;;;;;;;27.61;60.70;100564.86;1750178;80;21030;-49
2021/08/30 04:24:34;;;;;;;19.62;17.62;;;;;;;27.61;60.67;100562.19;1770133;80;21570;-49
2021/08/30 04:27:00;;;;;;;19.75;17.70;;;;;;;27.62;60.51;100567.87;1753480;80;21014;-51
2021/08/30 04:29:28;;;;;;;18.65;16.95;;;;;;;27.62;60.36;100575.89;1762937;80;21451;-50
2021/08/30 04:31:54;;;;;;;20.23;18.20;;;;;;;27.63;60.26;100579.77;1757040;80;20974;-49
2021/08/30 04:34:22;;;;;;;27.50;18.20;;;;;;;27.65;60.14;100579.62;1769122;80;21018;-51
2021/08/30 04:36:50;;;;;;;19.73;17.85;;;;;;;27.66;60.00;100577.28;1763657;80;21061;-51
2021/08/30 04:39:17;;;;;;;20.23;17.92;;;;;;;27.67;59.88;100578.98;1781407;80;21065;-51
2021/08/30 04:41:44;;;;;;;19.82;17.85;;;;;;;27.68;59.80;100577.97;1773378;80;21502;-51
2021/08/30 04:44:11;;;;;;;19.05;17.07;;;;;;;27.69;59.71;100578.34;1772723;80;21038;-51
2021/08/30 04:46:38;;;;;;;19.55;17.55;;;;;;;27.70;59.73;100584.05;1759621;80;21010;-51
2021/08/30 04:49:05;;;;;;;18.92;17.02;;;;;;;27.70;59.69;100585.38;1764432;80;21039;-51
2021/08/30 04:51:32;;;;;;;23.00;18.50;;;;;;;27.70;59.60;100581.38;1770267;80;21021;-51
2021/08/30 04:53:58;;;;;;;18.90;16.90;;;;;;;27.72;59.77;100590.09;1756661;80;21007;-51
2021/08/30 04:56:25;;;;;;;19.20;17.12;;;;;;;27.74;59.82;100589.45;1769697;80;21022;-49
2021/08/30 04:58:52;;;;;;;20.00;17.35;;;;;;;27.76;59.82;100596.83;1757371;80;21007;-51
2021/08/30 05:01:19;;;;;;;25.17;19.15;;;;;;;27.75;59.82;100589.78;1762875;80;20999;-49
2021/08/30 05:03:46;;;;;;;19.75;17.42;;;;;;;27.80;59.77;100603.56;1777276;80;21015;-51
2021/08/30 05:06:12;;;;;;;19.32;17.30;;;;;;;27.81;59.74;100602.56;1781857;80;21069;-52
2021/08/30 05:08:39;;;;;;;19.48;17.48;;;;;;;27.80;59.58;100601.70;1774455;80;21034;-51
2021/08/30 05:11:05;;;;;;;20.88;17.57;;;;;;;27.81;59.64;100598.06;1761044;80;21486;-51
2021/08/30 05:13:32;;;;;;;25.92;17.80;;;;;;;27.83;59.63;100600.58;1740929;81;21081;-51
2021/08/30 05:15:59;;;;;;;19.30;17.40;;;;;;;27.84;59.56;100600.94;1717424;82;21546;-51
2021/08/30 05:18:26;;;;;;;20.48;17.77;;;;;;;27.86;59.53;100601.64;1722904;82;22234;-52
2021/08/30 05:20:53;;;;;;;21.40;18.25;;;;;;;27.89;59.54;100604.00;1701731;82;21059;-51
2021/08/30 05:23:21;;;;;;;18.32;16.52;;;;;;;27.91;59.41;100598.01;1716506;83;21070;-51
2021/08/30 05:25:49;;;;;;;25.02;18.10;;;;;;;27.93;59.27;100594.20;1710399;82;21111;-51
2021/08/30 05:28:17;;;;;;;19.60;17.23;;;;;;;27.95;59.17;100592.22;1700566;82;21079;-51
2021/08/30 05:30:43;;;;;;;19.60;17.48;;;;;;;27.98;59.00;100596.47;1725416;82;21003;-51
2021/08/30 05:33:10;;;;;;;19.95;17.77;;;;;;;28.00;58.72;100595.34;1700054;82;21104;-51
2021/08/30 05:35:36;;;;;;;20.48;18.23;;;;;;;28.02;58.84;100592.51;1685243;84;21856;-50
2021/08/30 05:38:03;;;;;;;20.48;17.98;;;;;;;28.05;58.78;100594.88;1699587;83;21035;-51
2021/08/30 05:40:29;;;;;;;20.37;17.75;;;;;;;28.06;58.68;100596.57;1742582;80;21014;-51
2021/08/30 05:42:56;;;;;;;22.98;17.00;;;;;;;28.07;58.52;100591.06;1741677;80;21071;-50
2021/08/30 05:45:23;;;;;;;19.37;17.57;;;;;;;28.08;58.31;100590.09;1737582;81;21021;-49
2021/08/30 05:47:50;;;;;;;20.00;17.12;;;;;;;28.13;58.15;100593.66;1747032;80;21074;-49
2021/08/30 05:50:17;;;;;;;25.05;19.10;;;;;;;28.13;57.74;100592.32;1755882;80;21026;-49
2021/08/30 05:52:44;;;;;;;22.60;18.17;;;;;;;28.13;57.71;100592.32;1746085;81;21019;-49
2021/08/30 05:55:10;;;;;;;22.55;17.45;;;;;;;28.14;57.75;100593.99;1750730;80;21019;-49
2021/08/30 05:57:37;;;;;;;19.50;17.10;;;;;;;28.14;57.73;100599.34;1765353;80;21022;-49
2021/08/30 06:00:06;;;;;;;20.10;17.73;;;;;;;28.16;57.59;100598.20;1767134;80;21060;-50
2021/08/30 06:02:32;;;;;;;21.35;17.23;;;;;;;28.20;57.53;100596.06;1758129;80;21546;-49
2021/08/30 06:05:00;;;;;;;18.95;16.82;;;;;;;28.26;57.41;100590.11;1755592;80;21089;-49
2021/08/30 06:07:27;;;;;;;20.88;16.82;;;;;;;28.36;57.17;100596.24;1751967;80;21502;-49
2021/08/30 06:09:54;;;;;;;19.85;16.10;;;;;;;28.51;56.88;100604.11;1739816;81;21018;-49
2021/08/30 06:12:22;;;;;;;17.42;15.63;;;;;;;28.65;56.62;100602.27;1754824;80;21021;-51
2021/08/30 06:14:49;;;;;;;17.95;16.17;;;;;;;28.79;56.33;100604.41;1763045;80;21011;-51
2021/08/30 06:17:16;;;;;;;19.98;16.45;;;;;;;28.95;55.98;100605.89;1755928;80;21035;-48
2021/08/30 06:19:44;;;;;;;20.95;16.95;;;;;;;29.12;55.60;100605.53;1763229;80;21066;-49
2021/08/30 06:22:11;;;;;;;19.07;16.90;;;;;;;29.28;55.08;100607.05;1773361;80;21573;-49
2021/08/30 06:24:40;;;;;;;17.73;15.95;;;;;;;29.40;54.76;100608.97;1772428;80;21038;-49
2021/08/30 06:27:07;;;;;;;18.00;16.20;;;;;;;29.47;54.67;100607.35;1760715;80;20998;-49
2021/08/30 06:29:36;;;;;;;18.32;16.42;;;;;;;29.49;54.53;100608.03;1759085;80;21050;-49
2021/08/30 06:32:04;;;;;;;18.00;16.12;;;;;;;29.48;54.46;100604.50;1765073;80;21003;-49
2021/08/30 06:34:32;;;;;;;18.50;16.62;;;;;;;29.48;54.53;100617.91;1757858;80;21521;-49
2021/08/30 06:36:58;;;;;;;20.88;17.42;;;;;;;29.49;54.43;100610.19;1764965;80;21010;-50
2021/08/30 06:39:25;;;;;;;24.27;17.70;;;;;;;29.49;54.50;100612.05;1746253;80;20984;-49
2021/08/30 06:41:52;;;;;;;18.50;16.60;;;;;;;29.49;54.58;100612.05;1763908;80;21506;-49
2021/08/30 06:44:18;;;;;;;19.05;16.60;;;;;;;29.50;54.63;100612.38;1769789;80;21010;-50
2021/08/30 06:46:46;;;;;;;20.02;16.97;;;;;;;29.52;54.73;100615.75;1764821;80;21002;-49
2021/08/30 06:49:15;;;;;;;22.30;17.73;;;;;;;29.56;54.55;100620.64;1752216;80;21035;-50
2021/08/30 06:51:41;;;;;;;18.60;16.82;;;;;;;29.59;54.39;100620.83;1773225;80;21037;-50
2021/08/30 06:54:08;;;;;;;19.73;17.73;;;;;;;29.62;54.25;100625.37;1748010;80;20974;-50
2021/08/30 06:56:37;;;;;;;18.50;16.17;;;;;;;29.64;54.14;100622.52;1762404;80;21056;-50
2021/08/30 06:59:04;;;;;;;18.90;16.50;;;;;;;29.63;54.28;100628.90;1764246;80;21018;-49
2021/08/30 07:01:31;;;;;;;20.77;18.55;;;;;;;29.60;54.31;100629.20;1756557;80;21069;-51
2021/08/30 07:03:59;;;;;;;19.62;16.73;;;;;;;29.56;54.40;100631.37;1750742;80;20971;-50
2021/08/30 07:06:27;;;;;;;17.92;15.85;;;;;;;29.49;54.52;100629.48;1754139;80;21038;-50
2021/08/30 07:08:54;;;;;;;18.60;16.70;;;;;;;29.44;54.62;100634.46;1767110;80;21027;-50
2021/08/30 07:11:21;;;;;;;18.35;16.45;;;;;;;29.33;54.71;100633.36;1740301;81;21058;-49
2021/08/30 07:13:48;;;;;;;22.15;16.57;;;;;;;29.28;55.13;100633.01;1696306;82;21050;-50
2021/08/30 07:16:15;;;;;;;18.85;16.85;;;;;;;29.25;55.29;100637.32;1699376;83;21500;-49
2021/08/30 07:18:42;;;;;;;19.55;17.32;;;;;;;29.23;55.15;100637.98;1699528;82;20980;-50
2021/08/30 07:21:09;;;;;;;19.73;16.55;;;;;;;29.18;55.27;100640.30;1723091;82;20956;-49
2021/08/30 07:23:36;;;;;;;16.17;14.58;;;;;;;29.16;55.46;100644.97;1763678;80;21493;-49
2021/08/30 07:26:04;;;;;;;21.93;15.85;;;;;;;29.13;55.56;100646.08;1743324;80;21548;-48
2021/08/30 07:28:31;;;;;;;23.40;15.88;;;;;;;29.13;55.67;100644.74;1753171;80;21003;-48
2021/08/30 07:30:58;;;;;;;18.32;15.88;;;;;;;29.17;55.48;100650.17;1767262;80;21514;-49
2021/08/30 07:33:25;;;;;;;20.65;16.73;;;;;;;29.18;55.55;100655.86;1685679;83;21062;-49
2021/08/30 07:35:52;;;;;;;17.67;15.88;;;;;;;29.20;55.34;100658.41;1684065;84;20972;-49
2021/08/30 07:38:18;;;;;;;17.87;15.93;;;;;;;29.21;55.46;100660.92;1715185;81;21020;-49
2021/08/30 07:40:45;;;;;;;18.75;15.70;;;;;;;29.20;55.51;100654.38;1699876;83;21051;-49
2021/08/30 07:43:12;;;;;;;20.72;16.12;;;;;;;29.18;55.43;100663.08;1669317;83;21617;-49
2021/08/30 07:45:39;;;;;;;19.52;16.40;;;;;;;29.17;55.38;100658.70;1699530;84;21081;-50
2021/08/30 07:48:06;;;;;;;17.10;15.40;;;;;;;29.16;55.47;100661.05;1670771;83;21500;-48
2021/08/30 07:50:33;;;;;;;17.62;15.83;;;;;;;29.15;55.70;100656.18;1671027;83;21082;-50
2021/08/30 07:53:00;;;;;;;18.40;16.05;;;;;;;29.16;56.03;100661.05;1748590;80;21339;-50
2021/08/30 07:55:33;;;;;;;19.70;16.02;;;;;;;29.18;55.93;100659.05;1766140;80;20974;-52
2021/08/30 07:57:58;;;;;;;18.42;16.25;;;;;;;29.22;55.97;100661.77;1747508;80;21034;-49
2021/08/30 08:00:31;;;;;;;17.23;14.78;;;;;;;29.22;56.00;100659.09;1767565;80;21450;-49
2021/08/30 08:02:59;;;;;;;16.87;15.25;;;;;;;29.23;56.29;100658.08;1750917;80;21026;-49
2021/08/30 08:05:26;;;;;;;16.93;15.05;;;;;;;29.27;56.57;100670.17;1756908;80;21501;-49
2021/08/30 08:07:53;;;;;;;16.23;14.63;;;;;;;29.32;56.42;100670.56;1696348;82;21100;-48
2021/08/30 08:10:20;;;;;;;15.75;14.15;;;;;;;29.37;56.18;100668.23;1702097;83;21018;-49
2021/08/30 08:12:48;;;;;;;17.37;15.68;;;;;;;29.43;56.06;100667.64;1694780;82;21074;-49
2021/08/30 08:15:17;;;;;;;16.07;14.47;;;;;;;29.52;55.77;100666.69;1755382;80;21021;-49
2021/08/30 08:17:43;;;;;;;15.75;13.93;;;;;;;29.55;55.43;100665.05;1765665;80;21617;-49
2021/08/30 08:20:11;;;;;;;16.00;14.40;;;;;;;29.59;55.23;100664.55;1761106;80;21575;-49
2021/08/30 08:22:38;;;;;;;17.95;14.45;;;;;;;29.64;55.00;100664.94;1770298;80;21537;-51
2021/08/30 08:25:07;;;;;;;15.78;14.18;;;;;;;29.68;54.88;100662.77;1754719;80;21085;-49
2021/08/30 08:27:34;;;;;;;15.15;13.70;;;;;;;29.71;54.84;100667.84;1749600;80;21022;-49
2021/08/30 08:30:01;;;;;;;14.83;13.30;;;;;;;29.76;54.84;100674.92;1725256;81;21020;-49
2021/08/30 08:32:28;;;;;;;15.50;13.93;;;;;;;29.80;54.82;100664.22;1745575;81;21018;-49
2021/08/30 08:34:54;;;;;;;15.32;13.72;;;;;;;29.84;54.65;100664.27;1756576;80;21619;-51
2021/08/30 08:37:21;;;;;;;14.55;13.10;;;;;;;29.90;54.56;100665.47;1749023;80;21018;-49
2021/08/30 08:39:49;;;;;;;16.37;14.00;;;;;;;29.95;54.38;100665.81;1755024;80;21051;-49
2021/08/30 08:42:16;;;;;;;15.35;13.75;;;;;;;29.98;54.19;100663.67;1760287;80;21478;-49
2021/08/30 08:44:47;;;;;;;18.48;14.05;;;;;;;30.03;54.15;100661.83;1753402;80;21069;-49
2021/08/30 08:47:17;;;;;;;16.93;14.33;;;;;;;30.08;53.86;100668.42;1764071;80;21497;-49
2021/08/30 08:49:50;;;;;;;15.93;14.45;;;;;;;30.13;53.55;100667.42;1747746;80;21588;-50
2021/08/30 08:52:13;;;;;;;14.75;13.15;;;;;;;30.15;53.25;100664.08;1752650;80;20994;-51
2021/08/30 08:54:39;;;;;;;17.70;13.90;;;;;;;30.16;53.17;100669.80;1698990;82;21053;-50
2021/08/30 08:57:06;;;;;;;17.70;13.53;;;;;;;30.19;53.01;100674.83;1685208;83;21641;-51
2021/08/30 08:59:33;;;;;;;16.20;14.50;;;;;;;30.22;52.89;100673.18;1689682;83;21669;-50
2021/08/30 09:02:00;;;;;;;15.65;14.13;;;;;;;30.24;52.74;100677.88;1682032;83;20973;-51
2021/08/30 09:04:35;;;;;;;14.83;13.32;;;;;;;30.23;52.63;100678.87;1725085;80;21082;-49
2021/08/30 09:07:13;;;;;;;14.95;13.10;;;;;;;30.24;52.56;100683.25;1741280;80;21006;-50
2021/08/30 09:09:40;;;;;;;17.10;13.40;;;;;;;30.24;52.53;100679.72;1734521;80;21101;-50
2021/08/30 09:12:23;;;;;;;14.23;12.82;;;;;;;30.22;52.73;100675.86;1743968;81;21553;-51
2021/08/30 09:14:50;;;;;;;;;;;;;;;30.26;52.92;100675.88;1718301;82;20989;-51
2021/08/30 09:17:19;;;;;;;15.68;14.10;;;;;;;30.29;52.51;100672.92;1705615;82;20410;-50
2021/08/30 09:19:47;;;;;;;15.83;14.07;;;;;;;30.30;52.77;100671.90;1676827;83;21031;-49
2021/08/30 09:22:13;;;;;;;18.57;14.18;;;;;;;30.32;52.60;100677.95;1670686;84;21085;-50
2021/08/30 09:24:40;;;;;;;16.45;14.45;;;;;;;30.32;52.55;100677.09;1672312;84;21055;-49
2021/08/30 09:27:10;;;;;;;17.35;14.90;;;;;;;30.33;52.30;100673.43;1703684;83;21099;-49
2021/08/30 09:29:42;;;;;;;15.93;14.28;;;;;;;30.33;52.35;100675.62;1708326;82;21507;-50
2021/08/30 09:32:14;;;;;;;15.53;13.93;;;;;;;30.35;52.39;100674.95;1681551;83;20982;-49
2021/08/30 09:34:53;;;;;;;15.83;14.00;;;;;;;30.36;52.33;100675.28;1717810;82;21040;-49
2021/08/30 09:37:23;;;;;;;16.25;14.15;;;;;;;30.37;52.47;100688.20;1687692;83;21050;-50
2021/08/30 09:39:59;;;;;;;15.43;13.90;;;;;;;30.37;52.59;100685.03;1622480;86;21071;-50
2021/08/30 09:42:27;;;;;;;18.67;13.83;;;;;;;30.39;52.77;100679.00;1630124;86;21579;-49
2021/08/30 09:44:55;;;;;;;15.58;14.07;;;;;;;30.43;52.72;100685.72;1633582;86;21074;-51
2021/08/30 09:47:21;;;;;;;18.20;14.40;;;;;;;30.46;52.38;100682.69;1690361;83;21498;-49
2021/08/30 09:49:54;;;;;;;15.55;13.93;;;;;;;30.50;52.57;100684.58;1687155;84;20997;-49
2021/08/30 09:52:22;;;;;;;15.88;14.20;;;;;;;30.53;52.06;100687.77;1690470;83;21073;-49
2021/08/30 09:54:50;;;;;;;15.68;14.18;;;;;;;30.56;51.59;100687.10;1692014;83;21065;-50
2021/08/30 09:57:17;;;;;;;15.00;13.28;;;;;;;30.56;51.52;100684.42;1676438;83;21145;-50
2021/08/30 09:59:45;;;;;;;15.98;14.23;;;;;;;30.56;51.23;100681.23;1691988;83;21053;-50
2021/08/30 10:02:14;;;;;;;16.93;14.70;;;;;;;30.58;51.64;100685.09;1663652;85;21058;-52
2021/08/30 10:04:41;;;;;;;16.42;14.33;;;;;;;30.61;51.71;100684.75;1663595;84;20973;-50
2021/08/30 10:07:08;;;;;;;16.30;14.10;;;;;;;30.65;50.92;100688.79;1662524;84;21622;-51
2021/08/30 10:09:36;;;;;;;16.50;14.90;;;;;;;30.67;50.48;100689.47;1662714;84;21039;-52
2021/08/30 10:12:04;;;;;;;17.23;15.53;;;;;;;30.67;50.42;100693.00;1654611;85;21499;-51
2021/08/30 10:14:31;;;;;;;20.70;16.67;;;;;;;30.70;50.57;100690.50;1670243;83;21097;-50
2021/08/30 10:16:58;;;;;;;17.57;15.35;;;;;;;30.70;50.76;100692.69;1698480;83;21021;-51
2021/08/30 10:19:31;;;;;;;17.98;14.40;;;;;;;30.69;50.71;100695.52;1686079;84;21038;-50
2021/08/30 10:22:02;;;;;;;16.45;14.78;;;;;;;30.68;50.74;100699.22;1678668;83;21013;-50
2021/08/30 10:24:43;;;;;;;17.35;14.00;;;;;;;30.69;51.18;100703.57;1681599;83;21014;-51
2021/08/30 10:27:10;;;;;;;23.18;13.85;;;;;;;30.70;51.19;100694.52;1680043;83;21018;-50
2021/08/30 10:29:39;;;;;;;15.28;13.80;;;;;;;30.70;50.93;100697.21;1673886;83;21121;-50
2021/08/30 10:32:10;;;;;;;16.62;14.63;;;;;;;30.71;50.84;100696.22;1694791;83;20983;-51
2021/08/30 10:34:38;;;;;;;15.43;13.83;;;;;;;30.70;51.11;100698.55;1667095;84;21010;-51
2021/08/30 10:37:07;;;;;;;17.07;13.83;;;;;;;30.70;51.37;100699.90;1691064;83;20998;-51
2021/08/30 10:39:42;;;;;;;16.15;14.68;;;;;;;30.72;51.54;100692.52;1700988;83;21132;-50
2021/08/30 10:42:12;;;;;;;15.43;14.00;;;;;;;30.73;51.44;100690.19;1712329;83;21431;-51
2021/08/30 10:44:51;;;;;;;15.07;13.70;;;;;;;30.77;51.19;100692.88;1641212;86;21057;-50
2021/08/30 10:47:18;;;;;;;15.48;14.07;;;;;;;30.79;51.03;100696.24;1677287;84;21480;-50
2021/08/30 10:49:46;;;;;;;15.13;13.80;;;;;;;30.81;50.87;100691.55;1690425;83;21034;-51
2021/08/30 10:52:14;;;;;;;18.25;14.95;;;;;;;30.82;50.96;100697.23;1679093;83;21082;-51
2021/08/30 10:54:56;;;;;;;15.63;13.88;;;;;;;30.85;50.53;100690.23;1710375;83;20989;-50
2021/08/30 10:57:38;;;;;;;16.10;13.53;;;;;;;30.87;50.41;100693.60;1704466;83;21058;-51
2021/08/30 11:00:10;;;;;;;17.37;13.93;;;;;;;30.90;50.40;100691.91;1658384;85;21064;-51
2021/08/30 11:02:45;;;;;;;15.78;13.98;;;;;;;30.93;50.16;100695.63;1623812;87;21061;-50
2021/08/30 11:05:12;;;;;;;15.90;14.23;;;;;;;30.94;50.29;100690.58;1601223;88;21078;-50
2021/08/30 11:07:39;;;;;;;15.15;13.72;;;;;;;30.98;50.18;100691.92;1598040;88;21138;-49
2021/08/30 11:10:08;;;;;;;20.90;18.77;;;;;;;31.03;49.89;100686.91;1606294;88;21035;-50
2021/08/30 11:12:43;;;;;;;15.43;14.03;;;;;;;31.07;50.00;100686.41;1619473;86;21022;-50
2021/08/30 11:15:10;;;;;;;18.32;14.38;;;;;;;31.11;50.05;100690.45;1648687;85;21022;-50
2021/08/30 11:17:37;;;;;;;16.45;13.58;;;;;;;31.16;50.02;100680.55;1659474;84;21066;-49
2021/08/30 11:20:05;;;;;;;15.85;13.78;;;;;;;31.20;49.95;100686.73;1667098;84;20966;-50